sensor_id;sensor_type;location;lat;lon;timestamp;P1;durP1;ratioP1;P2;durP2;ratioP2
13483;SDS011;6814;57.786;12.080;2023-04-24T00:00:45;28.13;;;21.23;;
13483;SDS011;6814;57.786;12.080;2023-04-24T00:03:12;30.27;;;23.10;;
13483;SDS011;6814;57.786;12.080;2023-04-24T00:05:39;26.33;;;20.90;;
13483;SDS011;6814;57.786;12.080;2023-04-24T00:08:06;29.00;;;22.80;;
13483;SDS011;6814;57.786;12.080;2023-04-24T00:10:32;28.37;;;21.50;;
13483;SDS011;6814;57.786;12.080;2023-04-24T00:12:59;32.47;;;22.43;;
13483;SDS011;6814;57.786;12.080;2023-04-24T00:15:27;29.43;;;21.93;;
13483;SDS011;6814;57.786;12.080;2023-04-24T00:17:53;28.10;;;22.13;;
13483;SDS011;6814;57.786;12.080;2023-04-24T00:20:20;29.83;;;22.67;;
13483;SDS011;6814;57.786;12.080;2023-04-24T00:22:47;28.40;;;22.10;;
13483;SDS011;6814;57.786;12.080;2023-04-24T00:25:14;30.87;;;22.83;;
13483;SDS011;6814;57.786;12.080;2023-04-24T00:27:41;31.53;;;23.67;;
13483;SDS011;6814;57.786;12.080;2023-04-24T00:30:07;27.50;;;21.03;;
13483;SDS011;6814;57.786;12.080;2023-04-24T00:32:35;26.17;;;22.13;;
13483;SDS011;6814;57.786;12.080;2023-04-24T00:35:02;31.53;;;23.47;;
13483;SDS011;6814;57.786;12.080;2023-04-24T00:37:28;26.10;;;22.03;;
13483;SDS011;6814;57.786;12.080;2023-04-24T00:39:55;26.70;;;21.60;;
13483;SDS011;6814;57.786;12.080;2023-04-24T00:42:21;23.80;;;21.20;;
13483;SDS011;6814;57.786;12.080;2023-04-24T00:44:48;29.90;;;21.47;;
13483;SDS011;6814;57.786;12.080;2023-04-24T00:47:14;26.90;;;21.53;;
13483;SDS011;6814;57.786;12.080;2023-04-24T00:49:42;29.83;;;22.53;;
13483;SDS011;6814;57.786;12.080;2023-04-24T00:52:09;27.93;;;21.93;;
13483;SDS011;6814;57.786;12.080;2023-04-24T00:54:35;25.90;;;21.57;;
13483;SDS011;6814;57.786;12.080;2023-04-24T00:57:02;27.47;;;21.83;;
13483;SDS011;6814;57.786;12.080;2023-04-24T00:59:29;26.80;;;21.60;;
13483;SDS011;6814;57.786;12.080;2023-04-24T01:01:56;24.30;;;20.50;;
13483;SDS011;6814;57.786;12.080;2023-04-24T01:04:23;22.43;;;20.03;;
13483;SDS011;6814;57.786;12.080;2023-04-24T01:06:52;26.57;;;19.97;;
13483;SDS011;6814;57.786;12.080;2023-04-24T01:09:19;25.70;;;20.03;;
13483;SDS011;6814;57.786;12.080;2023-04-24T01:11:47;23.57;;;20.47;;
13483;SDS011;6814;57.786;12.080;2023-04-24T01:14:14;24.87;;;20.90;;
13483;SDS011;6814;57.786;12.080;2023-04-24T01:16:41;26.63;;;20.07;;
13483;SDS011;6814;57.786;12.080;2023-04-24T01:19:07;25.20;;;20.10;;
13483;SDS011;6814;57.786;12.080;2023-04-24T01:21:36;23.73;;;20.63;;
13483;SDS011;6814;57.786;12.080;2023-04-24T01:24:04;25.57;;;22.10;;
13483;SDS011;6814;57.786;12.080;2023-04-24T01:26:31;26.77;;;20.83;;
13483;SDS011;6814;57.786;12.080;2023-04-24T01:28:58;24.63;;;21.00;;
13483;SDS011;6814;57.786;12.080;2023-04-24T01:31:24;24.53;;;20.73;;
13483;SDS011;6814;57.786;12.080;2023-04-24T01:33:51;26.67;;;20.37;;
13483;SDS011;6814;57.786;12.080;2023-04-24T01:36:17;23.93;;;19.47;;
13483;SDS011;6814;57.786;12.080;2023-04-24T01:38:44;27.20;;;20.60;;
13483;SDS011;6814;57.786;12.080;2023-04-24T01:41:12;25.07;;;20.23;;
13483;SDS011;6814;57.786;12.080;2023-04-24T01:43:39;25.27;;;19.83;;
13483;SDS011;6814;57.786;12.080;2023-04-24T01:46:05;25.33;;;20.07;;
13483;SDS011;6814;57.786;12.080;2023-04-24T01:48:32;24.80;;;19.13;;
13483;SDS011;6814;57.786;12.080;2023-04-24T01:50:59;23.83;;;20.83;;
13483;SDS011;6814;57.786;12.080;2023-04-24T01:53:26;24.77;;;20.67;;
13483;SDS011;6814;57.786;12.080;2023-04-24T01:55:52;23.80;;;20.23;;
13483;SDS011;6814;57.786;12.080;2023-04-24T01:58:20;25.93;;;20.67;;
13483;SDS011;6814;57.786;12.080;2023-04-24T02:00:47;28.03;;;21.13;;
13483;SDS011;6814;57.786;12.080;2023-04-24T02:03:13;22.00;;;19.53;;
13483;SDS011;6814;57.786;12.080;2023-04-24T02:05:40;23.40;;;19.83;;
13483;SDS011;6814;57.786;12.080;2023-04-24T02:08:06;25.23;;;20.20;;
13483;SDS011;6814;57.786;12.080;2023-04-24T02:10:32;24.93;;;21.07;;
13483;SDS011;6814;57.786;12.080;2023-04-24T02:12:59;23.37;;;19.97;;
13483;SDS011;6814;57.786;12.080;2023-04-24T02:15:27;25.73;;;20.10;;
13483;SDS011;6814;57.786;12.080;2023-04-24T02:17:53;26.00;;;19.43;;
13483;SDS011;6814;57.786;12.080;2023-04-24T02:20:20;24.33;;;19.50;;
13483;SDS011;6814;57.786;12.080;2023-04-24T02:22:46;25.53;;;20.47;;
13483;SDS011;6814;57.786;12.080;2023-04-24T02:25:13;24.10;;;19.93;;
13483;SDS011;6814;57.786;12.080;2023-04-24T02:27:39;24.33;;;19.17;;
13483;SDS011;6814;57.786;12.080;2023-04-24T02:30:06;25.83;;;20.03;;
13483;SDS011;6814;57.786;12.080;2023-04-24T02:32:34;24.47;;;19.93;;
13483;SDS011;6814;57.786;12.080;2023-04-24T02:35:01;27.10;;;20.93;;
13483;SDS011;6814;57.786;12.080;2023-04-24T02:37:28;24.43;;;20.17;;
13483;SDS011;6814;57.786;12.080;2023-04-24T02:39:54;22.77;;;19.83;;
13483;SDS011;6814;57.786;12.080;2023-04-24T02:42:21;23.33;;;19.30;;
13483;SDS011;6814;57.786;12.080;2023-04-24T02:44:47;24.23;;;20.03;;
13483;SDS011;6814;57.786;12.080;2023-04-24T02:47:15;22.20;;;19.37;;
13483;SDS011;6814;57.786;12.080;2023-04-24T02:49:43;23.13;;;18.97;;
13483;SDS011;6814;57.786;12.080;2023-04-24T02:52:10;23.50;;;18.80;;
13483;SDS011;6814;57.786;12.080;2023-04-24T02:54:36;26.60;;;20.00;;
13483;SDS011;6814;57.786;12.080;2023-04-24T02:57:02;23.33;;;19.10;;
13483;SDS011;6814;57.786;12.080;2023-04-24T02:59:29;21.47;;;18.37;;
13483;SDS011;6814;57.786;12.080;2023-04-24T03:01:56;25.37;;;19.43;;
13483;SDS011;6814;57.786;12.080;2023-04-24T03:04:22;24.03;;;19.30;;
13483;SDS011;6814;57.786;12.080;2023-04-24T03:06:50;24.47;;;19.93;;
13483;SDS011;6814;57.786;12.080;2023-04-24T03:09:17;25.60;;;20.10;;
13483;SDS011;6814;57.786;12.080;2023-04-24T03:11:44;25.77;;;19.63;;
13483;SDS011;6814;57.786;12.080;2023-04-24T03:14:10;26.97;;;20.43;;
13483;SDS011;6814;57.786;12.080;2023-04-24T03:16:37;23.97;;;20.30;;
13483;SDS011;6814;57.786;12.080;2023-04-24T03:19:03;24.40;;;19.40;;
13483;SDS011;6814;57.786;12.080;2023-04-24T03:21:30;22.17;;;18.60;;
13483;SDS011;6814;57.786;12.080;2023-04-24T03:23:57;24.53;;;19.30;;
13483;SDS011;6814;57.786;12.080;2023-04-24T03:26:24;24.57;;;18.70;;
13483;SDS011;6814;57.786;12.080;2023-04-24T03:28:51;22.30;;;18.93;;
13483;SDS011;6814;57.786;12.080;2023-04-24T03:31:17;21.83;;;17.87;;
13483;SDS011;6814;57.786;12.080;2023-04-24T03:33:44;22.40;;;19.03;;
13483;SDS011;6814;57.786;12.080;2023-04-24T03:36:10;23.30;;;18.23;;
13483;SDS011;6814;57.786;12.080;2023-04-24T03:38:37;23.93;;;18.73;;
13483;SDS011;6814;57.786;12.080;2023-04-24T03:41:04;24.00;;;18.40;;
13483;SDS011;6814;57.786;12.080;2023-04-24T03:43:31;22.37;;;18.53;;
13483;SDS011;6814;57.786;12.080;2023-04-24T03:45:58;24.40;;;19.60;;
13483;SDS011;6814;57.786;12.080;2023-04-24T03:48:24;23.50;;;20.03;;
13483;SDS011;6814;57.786;12.080;2023-04-24T03:50:51;26.80;;;20.27;;
13483;SDS011;6814;57.786;12.080;2023-04-24T03:53:17;25.53;;;19.47;;
13483;SDS011;6814;57.786;12.080;2023-04-24T03:55:44;21.90;;;18.40;;
13483;SDS011;6814;57.786;12.080;2023-04-24T03:58:12;24.67;;;19.07;;
13483;SDS011;6814;57.786;12.080;2023-04-24T04:00:39;23.90;;;19.00;;
13483;SDS011;6814;57.786;12.080;2023-04-24T04:03:06;23.53;;;19.33;;
13483;SDS011;6814;57.786;12.080;2023-04-24T04:05:32;25.20;;;19.40;;
13483;SDS011;6814;57.786;12.080;2023-04-24T04:07:59;25.83;;;20.00;;
13483;SDS011;6814;57.786;12.080;2023-04-24T04:10:25;24.17;;;19.57;;
13483;SDS011;6814;57.786;12.080;2023-04-24T04:12:52;21.87;;;19.13;;
13483;SDS011;6814;57.786;12.080;2023-04-24T04:15:20;24.73;;;20.10;;
13483;SDS011;6814;57.786;12.080;2023-04-24T04:17:46;28.77;;;19.53;;
13483;SDS011;6814;57.786;12.080;2023-04-24T04:20:13;22.70;;;18.33;;
13483;SDS011;6814;57.786;12.080;2023-04-24T04:22:39;23.90;;;18.13;;
13483;SDS011;6814;57.786;12.080;2023-04-24T04:25:06;23.63;;;18.73;;
13483;SDS011;6814;57.786;12.080;2023-04-24T04:27:33;24.47;;;19.00;;
13483;SDS011;6814;57.786;12.080;2023-04-24T04:30:00;23.60;;;19.93;;
13483;SDS011;6814;57.786;12.080;2023-04-24T04:32:31;25.13;;;19.17;;
13483;SDS011;6814;57.786;12.080;2023-04-24T04:34:58;21.80;;;17.50;;
13483;SDS011;6814;57.786;12.080;2023-04-24T04:37:28;24.30;;;18.83;;
13483;SDS011;6814;57.786;12.080;2023-04-24T04:39:54;24.43;;;18.80;;
13483;SDS011;6814;57.786;12.080;2023-04-24T04:42:20;23.40;;;18.70;;
13483;SDS011;6814;57.786;12.080;2023-04-24T04:44:48;22.87;;;19.17;;
13483;SDS011;6814;57.786;12.080;2023-04-24T04:47:15;21.97;;;18.90;;
13483;SDS011;6814;57.786;12.080;2023-04-24T04:49:43;24.97;;;19.23;;
13483;SDS011;6814;57.786;12.080;2023-04-24T04:52:10;22.43;;;18.10;;
13483;SDS011;6814;57.786;12.080;2023-04-24T04:54:36;23.63;;;18.67;;
13483;SDS011;6814;57.786;12.080;2023-04-24T04:57:02;22.63;;;18.50;;
13483;SDS011;6814;57.786;12.080;2023-04-24T04:59:29;24.67;;;18.53;;
13483;SDS011;6814;57.786;12.080;2023-04-24T05:01:55;22.07;;;18.20;;
13483;SDS011;6814;57.786;12.080;2023-04-24T05:04:22;22.50;;;18.17;;
13483;SDS011;6814;57.786;12.080;2023-04-24T05:06:49;24.73;;;18.47;;
13483;SDS011;6814;57.786;12.080;2023-04-24T05:09:17;25.00;;;19.10;;
13483;SDS011;6814;57.786;12.080;2023-04-24T05:11:43;22.07;;;18.17;;
13483;SDS011;6814;57.786;12.080;2023-04-24T05:14:10;22.50;;;18.23;;
13483;SDS011;6814;57.786;12.080;2023-04-24T05:16:37;23.40;;;18.07;;
13483;SDS011;6814;57.786;12.080;2023-04-24T05:19:03;20.07;;;17.53;;
13483;SDS011;6814;57.786;12.080;2023-04-24T05:21:30;22.50;;;17.47;;
13483;SDS011;6814;57.786;12.080;2023-04-24T05:23:58;21.77;;;18.30;;
13483;SDS011;6814;57.786;12.080;2023-04-24T05:26:24;20.47;;;16.70;;
13483;SDS011;6814;57.786;12.080;2023-04-24T05:28:51;18.80;;;16.63;;
13483;SDS011;6814;57.786;12.080;2023-04-24T05:31:17;19.93;;;16.97;;
13483;SDS011;6814;57.786;12.080;2023-04-24T05:33:45;18.47;;;16.43;;
13483;SDS011;6814;57.786;12.080;2023-04-24T05:36:12;21.10;;;16.60;;
13483;SDS011;6814;57.786;12.080;2023-04-24T05:38:38;19.93;;;17.27;;
13483;SDS011;6814;57.786;12.080;2023-04-24T05:41:06;17.47;;;15.33;;
13483;SDS011;6814;57.786;12.080;2023-04-24T05:43:32;17.77;;;15.97;;
13483;SDS011;6814;57.786;12.080;2023-04-24T05:45:59;18.73;;;16.53;;
13483;SDS011;6814;57.786;12.080;2023-04-24T05:48:25;18.30;;;16.33;;
13483;SDS011;6814;57.786;12.080;2023-04-24T05:50:52;17.20;;;15.33;;
13483;SDS011;6814;57.786;12.080;2023-04-24T05:53:18;17.57;;;15.67;;
13483;SDS011;6814;57.786;12.080;2023-04-24T05:55:46;18.83;;;16.10;;
13483;SDS011;6814;57.786;12.080;2023-04-24T05:58:14;18.20;;;15.63;;
13483;SDS011;6814;57.786;12.080;2023-04-24T06:00:41;17.83;;;15.93;;
13483;SDS011;6814;57.786;12.080;2023-04-24T06:03:09;18.73;;;16.27;;
13483;SDS011;6814;57.786;12.080;2023-04-24T06:05:35;18.07;;;15.33;;
13483;SDS011;6814;57.786;12.080;2023-04-24T06:08:02;17.00;;;15.20;;
13483;SDS011;6814;57.786;12.080;2023-04-24T06:10:28;16.40;;;14.80;;
13483;SDS011;6814;57.786;12.080;2023-04-24T06:12:55;17.37;;;15.03;;
13483;SDS011;6814;57.786;12.080;2023-04-24T06:15:26;16.50;;;14.73;;
13483;SDS011;6814;57.786;12.080;2023-04-24T06:17:53;17.30;;;14.13;;
13483;SDS011;6814;57.786;12.080;2023-04-24T06:20:19;16.10;;;14.33;;
13483;SDS011;6814;57.786;12.080;2023-04-24T06:22:46;16.57;;;14.87;;
13483;SDS011;6814;57.786;12.080;2023-04-24T06:25:12;16.67;;;14.23;;
13483;SDS011;6814;57.786;12.080;2023-04-24T06:27:38;16.27;;;14.37;;
13483;SDS011;6814;57.786;12.080;2023-04-24T06:30:06;15.23;;;13.63;;
13483;SDS011;6814;57.786;12.080;2023-04-24T06:32:34;17.07;;;14.03;;
13483;SDS011;6814;57.786;12.080;2023-04-24T06:35:00;14.63;;;13.13;;
13483;SDS011;6814;57.786;12.080;2023-04-24T06:37:27;15.57;;;13.90;;
13483;SDS011;6814;57.786;12.080;2023-04-24T06:39:53;15.33;;;13.73;;
13483;SDS011;6814;57.786;12.080;2023-04-24T06:42:20;15.17;;;13.30;;
13483;SDS011;6814;57.786;12.080;2023-04-24T06:44:47;14.43;;;12.77;;
13483;SDS011;6814;57.786;12.080;2023-04-24T06:47:19;15.90;;;13.63;;
13483;SDS011;6814;57.786;12.080;2023-04-24T06:49:47;14.77;;;13.27;;
13483;SDS011;6814;57.786;12.080;2023-04-24T06:52:15;15.10;;;13.60;;
13483;SDS011;6814;57.786;12.080;2023-04-24T06:54:42;14.37;;;12.93;;
13483;SDS011;6814;57.786;12.080;2023-04-24T06:57:08;14.53;;;13.03;;
13483;SDS011;6814;57.786;12.080;2023-04-24T06:59:35;14.10;;;12.70;;
13483;SDS011;6814;57.786;12.080;2023-04-24T07:02:01;14.03;;;12.63;;
13483;SDS011;6814;57.786;12.080;2023-04-24T07:04:28;13.80;;;12.47;;
13483;SDS011;6814;57.786;12.080;2023-04-24T07:06:56;13.50;;;12.07;;
13483;SDS011;6814;57.786;12.080;2023-04-24T07:09:23;13.73;;;12.00;;
13483;SDS011;6814;57.786;12.080;2023-04-24T07:11:50;12.90;;;11.53;;
13483;SDS011;6814;57.786;12.080;2023-04-24T07:14:17;12.73;;;11.07;;
13483;SDS011;6814;57.786;12.080;2023-04-24T07:16:43;12.63;;;11.43;;
13483;SDS011;6814;57.786;12.080;2023-04-24T07:19:10;12.83;;;11.53;;
13483;SDS011;6814;57.786;12.080;2023-04-24T07:21:36;12.87;;;11.50;;
13483;SDS011;6814;57.786;12.080;2023-04-24T07:24:04;13.07;;;11.87;;
13483;SDS011;6814;57.786;12.080;2023-04-24T07:26:35;12.27;;;11.07;;
13483;SDS011;6814;57.786;12.080;2023-04-24T07:29:01;12.33;;;11.13;;
13483;SDS011;6814;57.786;12.080;2023-04-24T07:31:28;12.73;;;11.43;;
13483;SDS011;6814;57.786;12.080;2023-04-24T07:33:55;12.33;;;11.00;;
13483;SDS011;6814;57.786;12.080;2023-04-24T07:36:23;11.13;;;10.00;;
13483;SDS011;6814;57.786;12.080;2023-04-24T07:38:51;11.23;;;10.13;;
13483;SDS011;6814;57.786;12.080;2023-04-24T07:41:18;11.30;;;10.20;;
13483;SDS011;6814;57.786;12.080;2023-04-24T07:43:45;11.60;;;10.40;;
13483;SDS011;6814;57.786;12.080;2023-04-24T07:46:12;11.30;;;10.17;;
13483;SDS011;6814;57.786;12.080;2023-04-24T07:48:38;11.03;;;9.93;;
13483;SDS011;6814;57.786;12.080;2023-04-24T07:51:04;10.97;;;9.97;;
13483;SDS011;6814;57.786;12.080;2023-04-24T07:53:31;12.77;;;10.70;;
13483;SDS011;6814;57.786;12.080;2023-04-24T07:55:57;12.00;;;10.80;;
13483;SDS011;6814;57.786;12.080;2023-04-24T07:58:25;11.57;;;10.33;;
13483;SDS011;6814;57.786;12.080;2023-04-24T08:00:51;11.33;;;10.23;;
13483;SDS011;6814;57.786;12.080;2023-04-24T08:03:18;13.47;;;11.30;;
13483;SDS011;6814;57.786;12.080;2023-04-24T08:05:45;12.63;;;11.33;;
13483;SDS011;6814;57.786;12.080;2023-04-24T08:08:11;13.30;;;11.77;;
13483;SDS011;6814;57.786;12.080;2023-04-24T08:10:38;13.00;;;11.73;;
13483;SDS011;6814;57.786;12.080;2023-04-24T08:13:04;12.67;;;11.47;;
13483;SDS011;6814;57.786;12.080;2023-04-24T08:15:32;13.80;;;12.40;;
13483;SDS011;6814;57.786;12.080;2023-04-24T08:17:59;13.50;;;12.30;;
13483;SDS011;6814;57.786;12.080;2023-04-24T08:20:25;13.90;;;12.50;;
13483;SDS011;6814;57.786;12.080;2023-04-24T08:22:51;13.60;;;12.20;;
13483;SDS011;6814;57.786;12.080;2023-04-24T08:25:19;12.63;;;11.43;;
13483;SDS011;6814;57.786;12.080;2023-04-24T08:27:45;12.70;;;11.40;;
13483;SDS011;6814;57.786;12.080;2023-04-24T08:30:12;13.80;;;12.37;;
13483;SDS011;6814;57.786;12.080;2023-04-24T08:32:39;18.83;;;13.27;;
13483;SDS011;6814;57.786;12.080;2023-04-24T08:35:06;15.83;;;13.50;;
13483;SDS011;6814;57.786;12.080;2023-04-24T08:37:35;15.10;;;13.60;;
13483;SDS011;6814;57.786;12.080;2023-04-24T08:40:01;15.07;;;13.57;;
13483;SDS011;6814;57.786;12.080;2023-04-24T08:42:30;15.47;;;13.73;;
13483;SDS011;6814;57.786;12.080;2023-04-24T08:44:58;15.63;;;13.63;;
13483;SDS011;6814;57.786;12.080;2023-04-24T08:47:24;14.50;;;13.07;;
13483;SDS011;6814;57.786;12.080;2023-04-24T08:49:54;17.17;;;12.43;;
13483;SDS011;6814;57.786;12.080;2023-04-24T08:52:21;13.30;;;11.90;;
13483;SDS011;6814;57.786;12.080;2023-04-24T08:54:48;13.13;;;11.83;;
13483;SDS011;6814;57.786;12.080;2023-04-24T08:57:14;12.27;;;10.90;;
13483;SDS011;6814;57.786;12.080;2023-04-24T08:59:41;13.00;;;11.57;;
13483;SDS011;6814;57.786;12.080;2023-04-24T09:02:08;12.23;;;11.03;;
13483;SDS011;6814;57.786;12.080;2023-04-24T09:04:36;12.03;;;10.70;;
13483;SDS011;6814;57.786;12.080;2023-04-24T09:07:04;11.23;;;10.07;;
13483;SDS011;6814;57.786;12.080;2023-04-24T09:09:32;10.47;;;9.47;;
13483;SDS011;6814;57.786;12.080;2023-04-24T09:11:59;9.80;;;8.93;;
13483;SDS011;6814;57.786;12.080;2023-04-24T09:14:26;10.70;;;9.50;;
13483;SDS011;6814;57.786;12.080;2023-04-24T09:16:53;11.10;;;10.00;;
13483;SDS011;6814;57.786;12.080;2023-04-24T09:19:19;12.93;;;10.20;;
13483;SDS011;6814;57.786;12.080;2023-04-24T09:21:47;10.83;;;9.50;;
13483;SDS011;6814;57.786;12.080;2023-04-24T09:24:16;10.73;;;9.60;;
13483;SDS011;6814;57.786;12.080;2023-04-24T09:26:43;10.87;;;9.60;;
13483;SDS011;6814;57.786;12.080;2023-04-24T09:29:14;11.73;;;9.57;;
13483;SDS011;6814;57.786;12.080;2023-04-24T09:31:40;11.43;;;10.23;;
13483;SDS011;6814;57.786;12.080;2023-04-24T09:34:07;11.03;;;9.93;;
13483;SDS011;6814;57.786;12.080;2023-04-24T09:36:34;10.93;;;9.83;;
13483;SDS011;6814;57.786;12.080;2023-04-24T09:39:03;10.20;;;9.17;;
13483;SDS011;6814;57.786;12.080;2023-04-24T09:41:32;11.23;;;10.00;;
13483;SDS011;6814;57.786;12.080;2023-04-24T09:44:01;11.37;;;10.07;;
13483;SDS011;6814;57.786;12.080;2023-04-24T09:46:37;12.43;;;10.43;;
13483;SDS011;6814;57.786;12.080;2023-04-24T09:49:07;11.37;;;9.30;;
13483;SDS011;6814;57.786;12.080;2023-04-24T09:51:34;12.57;;;10.03;;
13483;SDS011;6814;57.786;12.080;2023-04-24T09:54:02;10.73;;;9.63;;
13483;SDS011;6814;57.786;12.080;2023-04-24T09:56:31;11.03;;;9.80;;
13483;SDS011;6814;57.786;12.080;2023-04-24T09:59:03;11.03;;;9.93;;
13483;SDS011;6814;57.786;12.080;2023-04-24T10:01:30;12.60;;;10.30;;
13483;SDS011;6814;57.786;12.080;2023-04-24T10:03:57;12.13;;;10.93;;
13483;SDS011;6814;57.786;12.080;2023-04-24T10:06:24;13.00;;;10.43;;
13483;SDS011;6814;57.786;12.080;2023-04-24T10:08:57;11.13;;;9.43;;
13483;SDS011;6814;57.786;12.080;2023-04-24T10:11:24;11.97;;;10.03;;
13483;SDS011;6814;57.786;12.080;2023-04-24T10:13:52;11.53;;;10.33;;
13483;SDS011;6814;57.786;12.080;2023-04-24T10:16:20;10.50;;;9.50;;
13483;SDS011;6814;57.786;12.080;2023-04-24T10:18:47;10.97;;;9.83;;
13483;SDS011;6814;57.786;12.080;2023-04-24T10:21:14;11.87;;;10.67;;
13483;SDS011;6814;57.786;12.080;2023-04-24T10:23:40;11.93;;;10.30;;
13483;SDS011;6814;57.786;12.080;2023-04-24T10:26:08;11.50;;;10.40;;
13483;SDS011;6814;57.786;12.080;2023-04-24T10:28:35;11.70;;;10.60;;
13483;SDS011;6814;57.786;12.080;2023-04-24T10:31:03;11.07;;;9.97;;
13483;SDS011;6814;57.786;12.080;2023-04-24T10:33:30;11.47;;;10.37;;
13483;SDS011;6814;57.786;12.080;2023-04-24T10:35:57;11.73;;;10.53;;
13483;SDS011;6814;57.786;12.080;2023-04-24T10:38:24;11.63;;;10.40;;
13483;SDS011;6814;57.786;12.080;2023-04-24T10:40:51;11.30;;;10.20;;
13483;SDS011;6814;57.786;12.080;2023-04-24T10:43:23;10.53;;;9.53;;
13483;SDS011;6814;57.786;12.080;2023-04-24T10:46:00;10.83;;;9.83;;
13483;SDS011;6814;57.786;12.080;2023-04-24T10:48:28;10.50;;;9.57;;
13483;SDS011;6814;57.786;12.080;2023-04-24T10:50:54;10.40;;;9.40;;
13483;SDS011;6814;57.786;12.080;2023-04-24T10:53:22;9.47;;;8.57;;
13483;SDS011;6814;57.786;12.080;2023-04-24T10:55:49;10.63;;;9.40;;
13483;SDS011;6814;57.786;12.080;2023-04-24T10:58:16;9.50;;;8.60;;
13483;SDS011;6814;57.786;12.080;2023-04-24T11:00:43;9.30;;;8.50;;
13483;SDS011;6814;57.786;12.080;2023-04-24T11:03:23;10.10;;;8.20;;
13483;SDS011;6814;57.786;12.080;2023-04-24T11:05:53;8.53;;;7.80;;
13483;SDS011;6814;57.786;12.080;2023-04-24T11:08:22;9.30;;;7.83;;
13483;SDS011;6814;57.786;12.080;2023-04-24T11:10:54;8.27;;;7.57;;
13483;SDS011;6814;57.786;12.080;2023-04-24T11:13:21;8.60;;;7.80;;
13483;SDS011;6814;57.786;12.080;2023-04-24T11:15:54;8.73;;;7.93;;
13483;SDS011;6814;57.786;12.080;2023-04-24T11:18:38;8.53;;;7.83;;
13483;SDS011;6814;57.786;12.080;2023-04-24T11:21:11;8.23;;;7.60;;
13483;SDS011;6814;57.786;12.080;2023-04-24T11:23:37;8.00;;;7.30;;
13483;SDS011;6814;57.786;12.080;2023-04-24T11:26:10;8.43;;;7.10;;
13483;SDS011;6814;57.786;12.080;2023-04-24T11:28:48;7.23;;;6.63;;
13483;SDS011;6814;57.786;12.080;2023-04-24T11:31:37;7.93;;;7.33;;
13483;SDS011;6814;57.786;12.080;2023-04-24T11:34:10;8.40;;;7.70;;
13483;SDS011;6814;57.786;12.080;2023-04-24T11:36:44;7.93;;;7.20;;
13483;SDS011;6814;57.786;12.080;2023-04-24T11:39:10;7.53;;;6.83;;
13483;SDS011;6814;57.786;12.080;2023-04-24T11:41:37;6.90;;;6.40;;
13483;SDS011;6814;57.786;12.080;2023-04-24T11:44:05;7.30;;;6.60;;
13483;SDS011;6814;57.786;12.080;2023-04-24T11:46:32;7.13;;;6.53;;
13483;SDS011;6814;57.786;12.080;2023-04-24T11:48:58;6.77;;;6.27;;
13483;SDS011;6814;57.786;12.080;2023-04-24T11:51:27;7.03;;;6.43;;
13483;SDS011;6814;57.786;12.080;2023-04-24T11:53:55;6.47;;;5.90;;
13483;SDS011;6814;57.786;12.080;2023-04-24T11:56:21;6.20;;;5.70;;
13483;SDS011;6814;57.786;12.080;2023-04-24T11:58:48;6.77;;;6.27;;
13483;SDS011;6814;57.786;12.080;2023-04-24T12:01:15;6.57;;;6.07;;
13483;SDS011;6814;57.786;12.080;2023-04-24T12:03:43;6.77;;;6.10;;
13483;SDS011;6814;57.786;12.080;2023-04-24T12:06:13;5.93;;;5.40;;
13483;SDS011;6814;57.786;12.080;2023-04-24T12:08:39;6.30;;;5.80;;
13483;SDS011;6814;57.786;12.080;2023-04-24T12:11:07;5.93;;;5.53;;
13483;SDS011;6814;57.786;12.080;2023-04-24T12:13:34;5.93;;;5.50;;
13483;SDS011;6814;57.786;12.080;2023-04-24T12:16:02;5.10;;;4.70;;
13483;SDS011;6814;57.786;12.080;2023-04-24T12:18:28;5.07;;;4.73;;
13483;SDS011;6814;57.786;12.080;2023-04-24T12:20:55;5.13;;;4.83;;
13483;SDS011;6814;57.786;12.080;2023-04-24T12:23:33;5.57;;;5.17;;
13483;SDS011;6814;57.786;12.080;2023-04-24T12:25:59;5.27;;;4.87;;
13483;SDS011;6814;57.786;12.080;2023-04-24T12:28:33;5.10;;;4.70;;
13483;SDS011;6814;57.786;12.080;2023-04-24T12:31:01;5.17;;;4.77;;
13483;SDS011;6814;57.786;12.080;2023-04-24T12:33:27;4.90;;;4.40;;
13483;SDS011;6814;57.786;12.080;2023-04-24T12:35:54;5.23;;;4.83;;
13483;SDS011;6814;57.786;12.080;2023-04-24T12:38:22;4.77;;;4.40;;
13483;SDS011;6814;57.786;12.080;2023-04-24T12:41:00;4.60;;;4.20;;
13483;SDS011;6814;57.786;12.080;2023-04-24T12:43:28;4.77;;;4.40;;
13483;SDS011;6814;57.786;12.080;2023-04-24T12:45:55;5.00;;;4.60;;
13483;SDS011;6814;57.786;12.080;2023-04-24T12:48:22;4.53;;;4.23;;
13483;SDS011;6814;57.786;12.080;2023-04-24T12:50:48;4.50;;;4.20;;
13483;SDS011;6814;57.786;12.080;2023-04-24T12:53:15;4.77;;;4.43;;
13483;SDS011;6814;57.786;12.080;2023-04-24T12:55:41;4.70;;;4.30;;
13483;SDS011;6814;57.786;12.080;2023-04-24T12:58:09;4.70;;;4.20;;
13483;SDS011;6814;57.786;12.080;2023-04-24T13:00:37;5.87;;;4.50;;
13483;SDS011;6814;57.786;12.080;2023-04-24T13:03:04;4.23;;;3.93;;
13483;SDS011;6814;57.786;12.080;2023-04-24T13:05:31;4.40;;;4.10;;
13483;SDS011;6814;57.786;12.080;2023-04-24T13:07:57;4.13;;;3.83;;
13483;SDS011;6814;57.786;12.080;2023-04-24T13:10:24;4.73;;;4.33;;
13483;SDS011;6814;57.786;12.080;2023-04-24T13:12:50;4.30;;;4.00;;
13483;SDS011;6814;57.786;12.080;2023-04-24T13:15:17;3.80;;;3.60;;
13483;SDS011;6814;57.786;12.080;2023-04-24T13:17:45;5.00;;;3.93;;
13483;SDS011;6814;57.786;12.080;2023-04-24T13:20:11;4.40;;;4.10;;
13483;SDS011;6814;57.786;12.080;2023-04-24T13:22:38;3.83;;;3.53;;
13483;SDS011;6814;57.786;12.080;2023-04-24T13:25:05;3.97;;;3.70;;
13483;SDS011;6814;57.786;12.080;2023-04-24T13:27:32;4.13;;;3.83;;
13483;SDS011;6814;57.786;12.080;2023-04-24T13:29:58;4.23;;;3.60;;
13483;SDS011;6814;57.786;12.080;2023-04-24T13:32:25;3.90;;;3.70;;
13483;SDS011;6814;57.786;12.080;2023-04-24T13:34:53;4.13;;;3.80;;
13483;SDS011;6814;57.786;12.080;2023-04-24T13:37:20;4.10;;;3.90;;
13483;SDS011;6814;57.786;12.080;2023-04-24T13:39:47;4.03;;;3.77;;
13483;SDS011;6814;57.786;12.080;2023-04-24T13:42:13;4.10;;;3.80;;
13483;SDS011;6814;57.786;12.080;2023-04-24T13:44:40;3.60;;;3.30;;
13483;SDS011;6814;57.786;12.080;2023-04-24T13:47:06;4.07;;;3.73;;
13483;SDS011;6814;57.786;12.080;2023-04-24T13:49:32;4.00;;;3.70;;
13483;SDS011;6814;57.786;12.080;2023-04-24T13:52:01;3.77;;;3.53;;
13483;SDS011;6814;57.786;12.080;2023-04-24T13:54:28;3.80;;;3.50;;
13483;SDS011;6814;57.786;12.080;2023-04-24T13:56:55;4.60;;;3.70;;
13483;SDS011;6814;57.786;12.080;2023-04-24T13:59:22;4.00;;;3.70;;
13483;SDS011;6814;57.786;12.080;2023-04-24T14:01:48;3.93;;;3.40;;
13483;SDS011;6814;57.786;12.080;2023-04-24T14:04:15;3.17;;;2.97;;
13483;SDS011;6814;57.786;12.080;2023-04-24T14:06:41;3.70;;;3.50;;
13483;SDS011;6814;57.786;12.080;2023-04-24T14:09:09;4.03;;;3.73;;
13483;SDS011;6814;57.786;12.080;2023-04-24T14:11:35;3.63;;;3.43;;
13483;SDS011;6814;57.786;12.080;2023-04-24T14:24:33;3.73;;;3.53;;
13483;SDS011;6814;57.786;12.080;2023-04-24T14:26:59;3.93;;;3.53;;
13483;SDS011;6814;57.786;12.080;2023-04-24T14:29:26;3.70;;;3.50;;
13483;SDS011;6814;57.786;12.080;2023-04-24T14:31:52;3.43;;;3.23;;
13483;SDS011;6814;57.786;12.080;2023-04-24T14:34:19;3.40;;;3.20;;
13483;SDS011;6814;57.786;12.080;2023-04-24T14:36:45;4.23;;;3.93;;
13483;SDS011;6814;57.786;12.080;2023-04-24T14:39:12;3.83;;;3.63;;